sensor_id;sensor_type;location;lat;lon;timestamp;P1;durP1;ratioP1;P2;durP2;ratioP2
24086;SDS011;22893;50.572;7.234;2022-12-07T17:06:02;8.20;;;1.45;;
24086;SDS011;22893;50.572;7.234;2022-12-07T17:08:29;26.65;;;10.50;;
24086;SDS011;22893;50.572;7.234;2022-12-07T17:10:57;81.25;;;35.43;;
24086;SDS011;22893;50.572;7.234;2022-12-07T17:13:25;193.15;;;75.78;;
24086;SDS011;22893;50.572;7.234;2022-12-07T17:16:10;269.52;;;108.75;;
24086;SDS011;22893;50.572;7.234;2022-12-07T17:18:38;273.30;;;122.42;;
24086;SDS011;22893;50.572;7.234;2022-12-07T17:21:06;278.07;;;123.20;;
24086;SDS011;22893;50.572;7.234;2022-12-07T17:23:35;303.32;;;123.92;;
24086;SDS011;22893;50.572;7.234;2022-12-07T17:26:07;287.20;;;120.08;;
24086;SDS011;22893;50.572;7.234;2022-12-07T17:28:37;280.77;;;114.55;;
24086;SDS011;22893;50.572;7.234;2022-12-07T17:31:06;242.97;;;104.70;;
24086;SDS011;22893;50.572;7.234;2022-12-07T17:33:35;250.57;;;104.67;;
24086;SDS011;22893;50.572;7.234;2022-12-07T17:36:14;242.40;;;99.05;;
24086;SDS011;22893;50.572;7.234;2022-12-07T17:38:43;226.50;;;91.55;;
24086;SDS011;22893;50.572;7.234;2022-12-07T17:41:18;221.50;;;92.67;;
24086;SDS011;22893;50.572;7.234;2022-12-07T17:43:44;206.15;;;89.10;;
24086;SDS011;22893;50.572;7.234;2022-12-07T17:46:12;193.32;;;86.00;;
24086;SDS011;22893;50.572;7.234;2022-12-07T17:48:40;209.95;;;83.75;;
24086;SDS011;22893;50.572;7.234;2022-12-07T17:51:08;194.47;;;83.25;;
24086;SDS011;22893;50.572;7.234;2022-12-07T17:53:37;195.62;;;81.40;;
24086;SDS011;22893;50.572;7.234;2022-12-07T17:56:04;184.52;;;79.17;;
24086;SDS011;22893;50.572;7.234;2022-12-07T17:58:32;181.65;;;74.97;;
24086;SDS011;22893;50.572;7.234;2022-12-07T18:01:00;181.00;;;76.00;;
24086;SDS011;22893;50.572;7.234;2022-12-07T18:03:28;189.40;;;76.85;;
24086;SDS011;22893;50.572;7.234;2022-12-07T18:05:55;168.40;;;69.53;;
24086;SDS011;22893;50.572;7.234;2022-12-07T18:08:24;166.90;;;69.70;;
24086;SDS011;22893;50.572;7.234;2022-12-07T18:11:00;154.32;;;65.30;;
24086;SDS011;22893;50.572;7.234;2022-12-07T18:13:25;165.60;;;64.58;;
24086;SDS011;22893;50.572;7.234;2022-12-07T18:16:03;152.65;;;62.88;;
24086;SDS011;22893;50.572;7.234;2022-12-07T18:18:32;162.72;;;66.57;;
24086;SDS011;22893;50.572;7.234;2022-12-07T18:21:03;143.45;;;60.63;;
24086;SDS011;22893;50.572;7.234;2022-12-07T18:23:32;124.53;;;53.63;;
24086;SDS011;22893;50.572;7.234;2022-12-07T18:26:00;149.50;;;60.23;;
24086;SDS011;22893;50.572;7.234;2022-12-07T18:28:28;162.92;;;64.20;;
24086;SDS011;22893;50.572;7.234;2022-12-07T18:30:56;159.10;;;62.67;;
24086;SDS011;22893;50.572;7.234;2022-12-07T18:33:23;144.95;;;63.87;;
24086;SDS011;22893;50.572;7.234;2022-12-07T18:35:51;173.95;;;63.87;;
24086;SDS011;22893;50.572;7.234;2022-12-07T18:38:18;164.80;;;63.38;;
24086;SDS011;22893;50.572;7.234;2022-12-07T18:40:46;152.90;;;59.63;;
24086;SDS011;22893;50.572;7.234;2022-12-07T18:43:14;140.35;;;59.88;;
24086;SDS011;22893;50.572;7.234;2022-12-07T18:45:44;152.82;;;59.38;;
24086;SDS011;22893;50.572;7.234;2022-12-07T18:48:17;138.37;;;52.60;;
24086;SDS011;22893;50.572;7.234;2022-12-07T18:50:46;140.43;;;56.33;;
24086;SDS011;22893;50.572;7.234;2022-12-07T18:53:15;139.28;;;51.45;;
24086;SDS011;22893;50.572;7.234;2022-12-07T18:55:43;129.72;;;53.70;;
24086;SDS011;22893;50.572;7.234;2022-12-07T18:58:11;121.35;;;49.73;;
24086;SDS011;22893;50.572;7.234;2022-12-07T19:00:38;126.75;;;49.10;;
24086;SDS011;22893;50.572;7.234;2022-12-07T19:03:06;133.65;;;49.53;;
24086;SDS011;22893;50.572;7.234;2022-12-07T19:05:35;112.62;;;45.35;;
24086;SDS011;22893;50.572;7.234;2022-12-07T19:08:03;115.62;;;47.33;;
24086;SDS011;22893;50.572;7.234;2022-12-07T19:10:31;104.25;;;44.25;;
24086;SDS011;22893;50.572;7.234;2022-12-07T19:12:58;102.97;;;41.55;;
24086;SDS011;22893;50.572;7.234;2022-12-07T19:15:27;108.97;;;37.60;;
24086;SDS011;22893;50.572;7.234;2022-12-07T19:17:55;99.85;;;39.10;;
24086;SDS011;22893;50.572;7.234;2022-12-07T19:20:23;89.03;;;37.40;;
24086;SDS011;22893;50.572;7.234;2022-12-07T19:22:50;97.65;;;37.17;;
24086;SDS011;22893;50.572;7.234;2022-12-07T19:25:18;89.22;;;37.08;;
24086;SDS011;22893;50.572;7.234;2022-12-07T19:27:46;97.95;;;35.28;;
24086;SDS011;22893;50.572;7.234;2022-12-07T19:32:41;84.17;;;35.05;;
24086;SDS011;22893;50.572;7.234;2022-12-07T19:35:08;80.60;;;33.70;;
24086;SDS011;22893;50.572;7.234;2022-12-07T19:37:36;83.42;;;33.25;;
24086;SDS011;22893;50.572;7.234;2022-12-07T19:40:04;81.40;;;34.00;;
24086;SDS011;22893;50.572;7.234;2022-12-07T19:42:33;77.92;;;31.02;;
24086;SDS011;22893;50.572;7.234;2022-12-07T19:45:01;78.50;;;28.85;;
24086;SDS011;22893;50.572;7.234;2022-12-07T19:47:29;70.57;;;29.05;;
24086;SDS011;22893;50.572;7.234;2022-12-07T19:49:56;63.92;;;27.22;;
24086;SDS011;22893;50.572;7.234;2022-12-07T19:52:24;66.28;;;26.23;;
24086;SDS011;22893;50.572;7.234;2022-12-07T19:54:52;74.05;;;27.25;;
24086;SDS011;22893;50.572;7.234;2022-12-07T19:57:19;68.00;;;25.35;;
24086;SDS011;22893;50.572;7.234;2022-12-07T19:59:47;57.33;;;23.98;;
24086;SDS011;22893;50.572;7.234;2022-12-07T20:02:15;58.58;;;23.77;;
24086;SDS011;22893;50.572;7.234;2022-12-07T20:04:42;59.25;;;25.27;;
24086;SDS011;22893;50.572;7.234;2022-12-07T20:07:10;61.33;;;23.00;;
24086;SDS011;22893;50.572;7.234;2022-12-07T20:09:38;58.17;;;25.23;;
24086;SDS011;22893;50.572;7.234;2022-12-07T20:12:07;55.05;;;23.80;;
24086;SDS011;22893;50.572;7.234;2022-12-07T20:14:53;53.80;;;23.07;;
24086;SDS011;22893;50.572;7.234;2022-12-07T20:17:21;53.25;;;22.82;;
24086;SDS011;22893;50.572;7.234;2022-12-07T20:19:49;48.28;;;19.55;;
24086;SDS011;22893;50.572;7.234;2022-12-07T20:22:16;53.23;;;20.35;;
24086;SDS011;22893;50.572;7.234;2022-12-07T20:24:44;50.78;;;19.27;;
24086;SDS011;22893;50.572;7.234;2022-12-07T20:27:12;45.05;;;19.95;;
24086;SDS011;22893;50.572;7.234;2022-12-07T20:29:40;41.58;;;17.85;;
24086;SDS011;22893;50.572;7.234;2022-12-07T20:32:10;46.60;;;18.57;;
24086;SDS011;22893;50.572;7.234;2022-12-07T20:34:38;47.65;;;17.73;;
24086;SDS011;22893;50.572;7.234;2022-12-07T20:37:06;42.98;;;17.92;;
24086;SDS011;22893;50.572;7.234;2022-12-07T20:39:34;44.60;;;18.77;;
24086;SDS011;22893;50.572;7.234;2022-12-07T20:42:01;39.85;;;16.82;;
24086;SDS011;22893;50.572;7.234;2022-12-07T20:44:49;41.88;;;17.70;;
24086;SDS011;22893;50.572;7.234;2022-12-07T20:47:22;59.27;;;19.98;;
24086;SDS011;22893;50.572;7.234;2022-12-07T20:49:49;46.35;;;19.32;;
24086;SDS011;22893;50.572;7.234;2022-12-07T20:52:17;45.17;;;15.98;;
24086;SDS011;22893;50.572;7.234;2022-12-07T20:54:46;42.65;;;15.68;;
24086;SDS011;22893;50.572;7.234;2022-12-07T20:57:14;39.13;;;15.50;;
24086;SDS011;22893;50.572;7.234;2022-12-07T20:59:41;40.08;;;15.60;;
24086;SDS011;22893;50.572;7.234;2022-12-07T21:02:10;42.67;;;16.00;;
24086;SDS011;22893;50.572;7.234;2022-12-07T21:04:39;37.63;;;14.00;;
24086;SDS011;22893;50.572;7.234;2022-12-07T21:07:07;33.58;;;12.95;;
24086;SDS011;22893;50.572;7.234;2022-12-07T21:09:34;34.65;;;13.43;;
24086;SDS011;22893;50.572;7.234;2022-12-07T21:12:02;32.23;;;13.15;;
24086;SDS011;22893;50.572;7.234;2022-12-07T21:14:30;30.65;;;13.22;;
24086;SDS011;22893;50.572;7.234;2022-12-07T21:16:58;36.30;;;12.55;;
24086;SDS011;22893;50.572;7.234;2022-12-07T21:19:25;29.07;;;12.13;;
24086;SDS011;22893;50.572;7.234;2022-12-07T21:21:53;29.35;;;12.43;;
24086;SDS011;22893;50.572;7.234;2022-12-07T21:24:20;28.70;;;12.07;;
24086;SDS011;22893;50.572;7.234;2022-12-07T21:26:48;28.10;;;12.60;;
24086;SDS011;22893;50.572;7.234;2022-12-07T21:29:16;23.87;;;11.10;;
24086;SDS011;22893;50.572;7.234;2022-12-07T21:31:44;27.87;;;12.13;;
24086;SDS011;22893;50.572;7.234;2022-12-07T21:34:12;27.82;;;11.78;;
24086;SDS011;22893;50.572;7.234;2022-12-07T21:36:39;23.40;;;11.08;;
24086;SDS011;22893;50.572;7.234;2022-12-07T21:39:07;27.50;;;10.63;;
24086;SDS011;22893;50.572;7.234;2022-12-07T21:41:35;19.42;;;8.73;;
24086;SDS011;22893;50.572;7.234;2022-12-07T21:44:06;21.52;;;9.78;;
24086;SDS011;22893;50.572;7.234;2022-12-07T21:46:37;26.15;;;11.28;;
24086;SDS011;22893;50.572;7.234;2022-12-07T21:49:07;24.12;;;10.18;;
24086;SDS011;22893;50.572;7.234;2022-12-07T21:51:39;22.77;;;9.90;;
24086;SDS011;22893;50.572;7.234;2022-12-07T21:54:09;23.80;;;9.40;;
24086;SDS011;22893;50.572;7.234;2022-12-07T21:56:39;23.45;;;9.45;;
